Time;durP1;ratioP1;P1;durP2;ratioP2;P2;SDS_P1;SDS_P2;PMS_P1;PMS_P2;Temp;Humidity;BMP_temperature;BMP_pressure;BME280_temperature;BME280_humidity;BME280_pressure;Samples;Min_cycle;Max_cycle;Signal;HPM_P1;HPM_P2
2022/12/12 00:02:21;;;;;;;24.80;13.75;;;;;;;;;;5058466;28;20054;-79
2022/12/12 00:04:49;;;;;;;29.88;13.50;;;;;;;;;;5059485;28;20060;-78
2022/12/12 00:07:16;;;;;;;24.50;13.30;;;;;;;;;;5063753;28;20364;-78
2022/12/12 00:09:43;;;;;;;28.63;13.65;;;;;;;;;;5055469;28;20127;-78
2022/12/12 00:12:11;;;;;;;24.73;13.00;;;;;;;;;;5034505;28;20052;-78
2022/12/12 00:14:38;;;;;;;27.27;14.07;;;;;;;;;;5042393;28;20045;-78
2022/12/12 00:17:05;;;;;;;26.02;13.65;;;;;;;;;;5068060;28;20029;-78
2022/12/12 00:19:33;;;;;;;26.25;13.25;;;;;;;;;;5050869;28;20053;-78
2022/12/12 00:22:00;;;;;;;27.05;13.40;;;;;;;;;;5053576;28;20045;-78
2022/12/12 00:24:27;;;;;;;27.80;13.88;;;;;;;;;;5062337;28;20064;-78
2022/12/12 00:26:55;;;;;;;28.55;14.27;;;;;;;;;;5056163;28;20030;-79
2022/12/12 00:29:22;;;;;;;29.08;15.02;;;;;;;;;;5057265;28;20045;-78
2022/12/12 00:31:50;;;;;;;25.25;12.48;;;;;;;;;;5065510;28;20053;-78
2022/12/12 00:34:19;;;;;;;25.80;12.90;;;;;;;;;;5059128;28;20041;-78
2022/12/12 00:36:46;;;;;;;23.10;11.98;;;;;;;;;;5058403;28;20056;-78
2022/12/12 00:39:14;;;;;;;26.20;12.75;;;;;;;;;;5059762;28;20104;-78
2022/12/12 00:41:44;;;;;;;28.00;13.75;;;;;;;;;;5061929;28;20040;-79
2022/12/12 00:44:11;;;;;;;25.08;13.13;;;;;;;;;;5067606;28;20045;-78
2022/12/12 00:46:39;;;;;;;28.15;13.88;;;;;;;;;;5060646;28;20057;-78
2022/12/12 00:49:09;;;;;;;27.45;13.30;;;;;;;;;;5038513;28;20030;-79
2022/12/12 00:51:39;;;;;;;24.38;13.30;;;;;;;;;;5064019;28;20109;-78
2022/12/12 00:54:06;;;;;;;27.10;13.52;;;;;;;;;;5060781;28;20910;-79
2022/12/12 00:56:33;;;;;;;26.17;13.60;;;;;;;;;;5056665;28;20054;-79
2022/12/12 00:59:02;;;;;;;31.50;13.93;;;;;;;;;;5059537;28;20041;-79
2022/12/12 01:01:30;;;;;;;23.42;12.68;;;;;;;;;;5062245;28;20096;-78
2022/12/12 01:03:58;;;;;;;26.90;12.75;;;;;;;;;;5059964;28;20064;-79
2022/12/12 01:06:26;;;;;;;24.33;13.32;;;;;;;;;;5063865;28;20151;-79
2022/12/12 01:08:54;;;;;;;26.15;13.43;;;;;;;;;;5041754;28;20049;-79
2022/12/12 01:11:21;;;;;;;27.33;12.90;;;;;;;;;;5058364;28;20145;-78
2022/12/12 01:13:50;;;;;;;24.70;12.80;;;;;;;;;;5059917;28;20768;-78
2022/12/12 01:16:18;;;;;;;26.90;13.35;;;;;;;;;;5064148;28;20065;-79
2022/12/12 01:18:46;;;;;;;25.23;14.00;;;;;;;;;;5050534;28;20053;-78
2022/12/12 01:21:15;;;;;;;27.98;13.32;;;;;;;;;;5063035;28;20080;-78
2022/12/12 01:23:42;;;;;;;30.67;14.50;;;;;;;;;;5060001;28;20069;-78
2022/12/12 01:26:11;;;;;;;28.92;14.15;;;;;;;;;;5041034;28;20037;-79
2022/12/12 01:28:39;;;;;;;27.83;12.93;;;;;;;;;;5044737;28;20036;-78
2022/12/12 01:31:07;;;;;;;24.50;13.40;;;;;;;;;;5045807;28;20053;-78
2022/12/12 01:33:35;;;;;;;29.23;14.70;;;;;;;;;;5040374;28;20049;-79
2022/12/12 01:36:08;;;;;;;27.80;13.63;;;;;;;;;;5040452;28;20054;-79
2022/12/12 01:38:36;;;;;;;32.17;13.57;;;;;;;;;;5043695;28;20034;-79
2022/12/12 01:41:03;;;;;;;27.42;13.95;;;;;;;;;;5049357;28;20054;-78
2022/12/12 01:43:31;;;;;;;25.60;13.27;;;;;;;;;;5046274;28;20546;-79
2022/12/12 01:45:58;;;;;;;28.98;14.35;;;;;;;;;;5044707;28;20077;-79
2022/12/12 01:48:28;;;;;;;22.48;12.88;;;;;;;;;;5053037;28;20046;-78
2022/12/12 01:50:56;;;;;;;27.65;14.65;;;;;;;;;;5043121;28;20059;-79
2022/12/12 01:53:25;;;;;;;25.85;13.98;;;;;;;;;;5044432;28;20046;-78
2022/12/12 01:55:53;;;;;;;22.08;12.82;;;;;;;;;;5042869;28;20050;-78
2022/12/12 01:58:21;;;;;;;25.42;12.95;;;;;;;;;;5041911;28;20614;-78
2022/12/12 02:00:48;;;;;;;27.60;14.18;;;;;;;;;;5047222;28;20070;-79
2022/12/12 02:03:15;;;;;;;24.17;13.15;;;;;;;;;;5048314;28;20064;-79
2022/12/12 02:05:46;;;;;;;23.60;13.68;;;;;;;;;;5043960;28;20038;-78
2022/12/12 02:08:15;;;;;;;31.75;13.85;;;;;;;;;;5041988;28;20050;-78
2022/12/12 02:10:44;;;;;;;29.15;14.38;;;;;;;;;;5041335;28;20038;-79
2022/12/12 02:13:13;;;;;;;30.48;14.57;;;;;;;;;;5042636;28;20077;-78
2022/12/12 02:15:47;;;;;;;25.27;14.02;;;;;;;;;;5030119;28;20046;-78
2022/12/12 02:18:38;;;;;;;28.48;13.30;;;;;;;;;;5036208;28;20030;-78
2022/12/12 02:21:11;;;;;;;29.67;13.18;;;;;;;;;;5043281;28;20057;-79
2022/12/12 02:23:50;;;;;;;24.20;13.20;;;;;;;;;;5059587;28;20057;-78
2022/12/12 02:26:24;;;;;;;26.88;13.23;;;;;;;;;;5062917;28;20045;-79
2022/12/12 02:29:00;;;;;;;25.65;14.40;;;;;;;;;;5068077;28;20037;-79
2022/12/12 02:31:28;;;;;;;28.70;13.38;;;;;;;;;;5067844;28;20053;-79
2022/12/12 02:33:59;;;;;;;25.05;13.27;;;;;;;;;;5061707;28;20247;-80
2022/12/12 02:36:39;;;;;;;21.33;11.85;;;;;;;;;;5075503;28;20065;-79
2022/12/12 02:39:09;;;;;;;28.83;13.45;;;;;;;;;;5058319;28;20056;-79
2022/12/12 02:41:43;;;;;;;23.98;13.63;;;;;;;;;;5062478;28;20050;-79
2022/12/12 02:44:25;;;;;;;23.75;12.98;;;;;;;;;;5075356;28;20041;-80
2022/12/12 02:46:59;;;;;;;28.48;13.63;;;;;;;;;;5049156;28;20053;-78
2022/12/12 02:49:30;;;;;;;23.90;12.93;;;;;;;;;;5061167;28;20144;-78
2022/12/12 02:51:59;;;;;;;25.10;12.32;;;;;;;;;;5065272;28;20033;-79
2022/12/12 02:54:26;;;;;;;22.65;12.23;;;;;;;;;;5060760;28;20045;-79
2022/12/12 02:56:58;;;;;;;25.77;13.45;;;;;;;;;;5057439;28;20053;-78
2022/12/12 02:59:33;;;;;;;28.08;12.48;;;;;;;;;;5062164;28;20533;-78
2022/12/12 03:02:00;;;;;;;25.98;13.35;;;;;;;;;;5060781;28;20053;-78
2022/12/12 03:07:46;;;;;;;27.45;11.88;;;;;;;;;;5061649;28;20603;-78
2022/12/12 03:10:19;;;;;;;24.13;12.80;;;;;;;;;;4993075;28;20042;-78
2022/12/12 03:12:47;;;;;;;;;;;;;;;;;;4990734;28;20061;-78
2022/12/12 03:15:17;;;;;;;22.48;11.85;;;;;;;;;;4999751;28;44011;-78
2022/12/12 03:17:50;;;;;;;27.10;13.10;;;;;;;;;;4998171;28;20074;-78
2022/12/12 03:20:29;;;;;;;25.73;12.10;;;;;;;;;;4997728;28;20027;-79
2022/12/12 03:23:00;;;;;;;24.73;12.68;;;;;;;;;;4997066;28;20043;-78
2022/12/12 03:25:38;;;;;;;26.05;13.05;;;;;;;;;;4992801;28;22142;-78
2022/12/12 03:28:09;;;;;;;25.17;12.75;;;;;;;;;;4994102;28;20098;-78
2022/12/12 03:30:45;;;;;;;26.33;12.38;;;;;;;;;;4994008;28;20039;-78
2022/12/12 03:33:13;;;;;;;25.85;13.20;;;;;;;;;;4996745;28;20050;-79
2022/12/12 03:35:43;;;;;;;30.50;13.85;;;;;;;;;;4994618;28;20047;-78
2022/12/12 03:38:21;;;;;;;27.08;14.10;;;;;;;;;;4992576;28;20062;-79
2022/12/12 03:40:51;;;;;;;23.08;12.48;;;;;;;;;;4990171;28;20197;-78
2022/12/12 03:43:18;;;;;;;24.27;12.35;;;;;;;;;;4995274;28;20514;-78
2022/12/12 03:45:53;;;;;;;26.50;12.55;;;;;;;;;;4992042;28;20127;-78
2022/12/12 03:48:28;;;;;;;27.95;12.85;;;;;;;;;;5029069;28;20038;-79
2022/12/12 03:50:58;;;;;;;28.20;13.35;;;;;;;;;;5048261;28;20077;-78
2022/12/12 03:53:41;;;;;;;24.17;13.02;;;;;;;;;;5039735;28;20110;-78
2022/12/12 03:56:09;;;;;;;29.55;14.00;;;;;;;;;;5041090;28;20055;-78
2022/12/12 03:58:42;;;;;;;29.10;14.68;;;;;;;;;;5040571;28;20041;-78
2022/12/12 04:01:11;;;;;;;25.55;12.80;;;;;;;;;;5041034;28;20054;-78
2022/12/12 04:03:56;;;;;;;27.48;12.93;;;;;;;;;;5039867;28;20045;-79
2022/12/12 04:06:31;;;;;;;27.95;13.77;;;;;;;;;;5056469;28;20042;-78
2022/12/12 04:15:16;;;;;;;26.33;12.43;;;;;;;;;;5034149;28;20065;-78
2022/12/12 04:18:04;;;;;;;20.88;10.80;;;;;;;;;;5041056;28;20393;-78
2022/12/12 04:23:56;;;;;;;25.42;12.57;;;;;;;;;;5046583;28;20064;-78
2022/12/12 04:26:39;;;;;;;24.83;12.00;;;;;;;;;;5054111;28;20072;-78
2022/12/12 04:29:10;;;;;;;24.60;12.20;;;;;;;;;;5059440;28;20064;-78
2022/12/12 04:31:45;;;;;;;33.33;13.15;;;;;;;;;;5053848;28;20109;-78
2022/12/12 04:34:21;;;;;;;28.20;13.15;;;;;;;;;;5028275;28;20044;-78
2022/12/12 04:36:49;;;;;;;23.98;11.95;;;;;;;;;;5058047;28;20060;-78
2022/12/12 04:39:19;;;;;;;24.00;12.13;;;;;;;;;;5063966;28;20057;-78
2022/12/12 04:41:47;;;;;;;27.05;12.27;;;;;;;;;;5037410;28;20053;-78
2022/12/12 04:44:16;;;;;;;27.63;12.60;;;;;;;;;;5051451;28;20060;-78
2022/12/12 04:46:44;;;;;;;27.02;12.43;;;;;;;;;;5049205;28;20054;-78
2022/12/12 04:49:15;;;;;;;27.35;12.13;;;;;;;;;;5052832;28;20057;-79
2022/12/12 04:51:44;;;;;;;25.15;12.82;;;;;;;;;;5044220;28;20170;-79
2022/12/12 04:54:30;;;;;;;25.02;12.18;;;;;;;;;;5053509;28;20072;-78
2022/12/12 04:56:59;;;;;;;30.02;12.70;;;;;;;;;;5053717;28;20140;-78
2022/12/12 04:59:27;;;;;;;30.52;13.43;;;;;;;;;;5040305;28;20053;-79
2022/12/12 05:01:54;;;;;;;28.75;12.48;;;;;;;;;;5033362;28;20053;-78
2022/12/12 05:04:40;;;;;;;28.75;12.93;;;;;;;;;;5051588;28;20038;-79
2022/12/12 05:07:15;;;;;;;25.27;12.30;;;;;;;;;;5044189;28;20149;-78
2022/12/12 05:09:42;;;;;;;33.35;13.77;;;;;;;;;;5036757;28;20054;-78
2022/12/12 05:12:09;;;;;;;31.73;13.80;;;;;;;;;;5051531;28;20046;-78
2022/12/12 05:14:37;;;;;;;26.38;13.52;;;;;;;;;;5037458;28;20053;-78
2022/12/12 05:17:11;;;;;;;30.73;14.05;;;;;;;;;;5057626;28;20103;-78
2022/12/12 05:19:38;;;;;;;26.48;13.48;;;;;;;;;;5054642;28;20049;-78
2022/12/12 05:22:05;;;;;;;30.45;13.15;;;;;;;;;;5059640;28;20041;-78
2022/12/12 05:24:33;;;;;;;32.35;12.73;;;;;;;;;;5046077;28;20596;-79
2022/12/12 05:27:00;;;;;;;25.70;12.80;;;;;;;;;;5044554;28;20076;-78
2022/12/12 05:29:27;;;;;;;26.73;12.35;;;;;;;;;;5055755;28;20176;-78
2022/12/12 05:31:55;;;;;;;27.85;12.68;;;;;;;;;;5057752;28;20059;-78
2022/12/12 05:34:22;;;;;;;26.05;12.82;;;;;;;;;;5060801;28;20042;-78
2022/12/12 05:36:50;;;;;;;28.58;12.98;;;;;;;;;;5066848;28;20080;-78
2022/12/12 05:39:19;;;;;;;27.42;12.73;;;;;;;;;;5059422;28;20061;-78
2022/12/12 05:41:47;;;;;;;28.17;13.85;;;;;;;;;;5060659;28;20044;-78
2022/12/12 05:44:15;;;;;;;26.15;12.95;;;;;;;;;;5060370;28;20051;-78
2022/12/12 05:46:42;;;;;;;23.35;12.45;;;;;;;;;;5059162;28;20052;-78
2022/12/12 05:49:09;;;;;;;27.85;13.38;;;;;;;;;;5055971;28;20053;-78
2022/12/12 05:51:36;;;;;;;30.48;12.98;;;;;;;;;;5063020;28;20038;-78
2022/12/12 05:54:04;;;;;;;28.05;12.52;;;;;;;;;;5060301;28;20049;-78
2022/12/12 05:56:31;;;;;;;33.70;12.93;;;;;;;;;;5064669;28;20063;-78
2022/12/12 05:58:59;;;;;;;27.83;12.77;;;;;;;;;;5046265;28;20113;-78
2022/12/12 06:01:27;;;;;;;23.33;11.77;;;;;;;;;;5054677;28;20046;-78
2022/12/12 06:03:54;;;;;;;27.42;12.90;;;;;;;;;;5044502;28;20041;-79
2022/12/12 06:06:22;;;;;;;27.75;12.73;;;;;;;;;;5060787;28;20076;-78
2022/12/12 06:08:50;;;;;;;29.63;12.95;;;;;;;;;;5064733;28;20106;-79
2022/12/12 06:11:17;;;;;;;29.45;13.85;;;;;;;;;;5037559;28;20140;-79
2022/12/12 06:13:46;;;;;;;28.70;13.82;;;;;;;;;;5040227;28;20060;-78
2022/12/12 06:16:15;;;;;;;28.20;13.10;;;;;;;;;;5052071;28;20057;-79
2022/12/12 06:18:43;;;;;;;26.05;12.50;;;;;;;;;;5052179;28;20045;-79
2022/12/12 06:21:12;;;;;;;25.90;12.13;;;;;;;;;;5049131;28;20050;-78
2022/12/12 06:23:40;;;;;;;29.55;12.35;;;;;;;;;;5053640;28;20057;-78
2022/12/12 06:26:08;;;;;;;27.60;12.05;;;;;;;;;;5061067;28;20041;-78
2022/12/12 06:28:36;;;;;;;22.58;10.23;;;;;;;;;;5062820;28;20917;-78
2022/12/12 06:31:04;;;;;;;24.67;11.70;;;;;;;;;;5061421;28;20044;-78
2022/12/12 06:33:38;;;;;;;24.80;10.88;;;;;;;;;;5052331;28;20081;-78
2022/12/12 06:36:07;;;;;;;25.38;12.32;;;;;;;;;;5038551;28;20053;-78
2022/12/12 06:38:35;;;;;;;29.02;12.63;;;;;;;;;;5049901;28;20053;-78
2022/12/12 06:41:11;;;;;;;31.83;12.85;;;;;;;;;;5049977;28;20053;-78
2022/12/12 06:43:39;;;;;;;24.35;12.30;;;;;;;;;;5058059;28;20261;-78
2022/12/12 06:46:12;;;;;;;27.10;12.98;;;;;;;;;;5056232;28;20046;-78
2022/12/12 06:48:39;;;;;;;33.00;11.98;;;;;;;;;;5051615;28;21699;-78
2022/12/12 06:51:07;;;;;;;26.65;12.55;;;;;;;;;;5055937;28;20136;-78
2022/12/12 06:53:35;;;;;;;28.75;12.75;;;;;;;;;;5056583;28;20072;-78
2022/12/12 06:56:06;;;;;;;27.27;12.05;;;;;;;;;;5053176;28;20057;-78
2022/12/12 06:58:33;;;;;;;25.15;12.35;;;;;;;;;;5058030;28;20115;-78
2022/12/12 07:01:01;;;;;;;25.65;11.73;;;;;;;;;;5068975;28;20089;-79
2022/12/12 07:03:28;;;;;;;25.92;13.30;;;;;;;;;;5042309;28;20037;-79
2022/12/12 07:05:58;;;;;;;30.33;13.32;;;;;;;;;;5055335;28;20085;-79
2022/12/12 07:08:32;;;;;;;34.63;13.88;;;;;;;;;;5056006;28;20049;-78
2022/12/12 07:11:07;;;;;;;30.77;12.77;;;;;;;;;;5062537;28;20053;-78
2022/12/12 07:13:34;;;;;;;30.52;11.90;;;;;;;;;;5045501;28;20959;-79
2022/12/12 07:16:04;;;;;;;30.13;12.73;;;;;;;;;;5051972;28;20061;-78
2022/12/12 07:18:32;;;;;;;29.30;12.35;;;;;;;;;;5046825;28;20850;-79
2022/12/12 07:21:03;;;;;;;29.98;13.55;;;;;;;;;;5054951;28;20053;-79
2022/12/12 07:23:31;;;;;;;27.67;12.55;;;;;;;;;;5051136;28;20057;-78
2022/12/12 07:26:02;;;;;;;29.85;13.68;;;;;;;;;;5035818;28;20054;-78
2022/12/12 07:28:29;;;;;;;31.15;13.15;;;;;;;;;;5039275;28;20523;-78
2022/12/12 07:31:00;;;;;;;25.60;12.73;;;;;;;;;;5051275;28;20064;-77
2022/12/12 07:33:27;;;;;;;26.33;13.25;;;;;;;;;;5050595;28;20052;-78
2022/12/12 07:36:09;;;;;;;26.50;12.57;;;;;;;;;;5053042;28;20049;-78
2022/12/12 07:38:37;;;;;;;31.33;13.90;;;;;;;;;;5049159;28;20054;-78
2022/12/12 07:41:06;;;;;;;31.40;13.10;;;;;;;;;;5046366;28;20053;-78
2022/12/12 07:43:38;;;;;;;30.77;13.15;;;;;;;;;;5043982;28;20061;-78
2022/12/12 07:46:11;;;;;;;26.42;12.82;;;;;;;;;;5040243;28;20049;-77
2022/12/12 07:48:38;;;;;;;26.52;13.15;;;;;;;;;;5046113;28;20058;-78
2022/12/12 07:51:09;;;;;;;27.25;13.45;;;;;;;;;;5044467;28;20055;-77
2022/12/12 07:53:36;;;;;;;26.27;12.75;;;;;;;;;;5046541;28;20057;-78
2022/12/12 07:56:06;;;;;;;30.85;12.77;;;;;;;;;;5045135;28;20108;-77
2022/12/12 07:58:34;;;;;;;29.10;13.20;;;;;;;;;;5042900;28;20069;-78
2022/12/12 08:01:07;;;;;;;34.00;13.23;;;;;;;;;;5043083;28;20053;-78
2022/12/12 08:03:41;;;;;;;37.80;14.13;;;;;;;;;;5046054;28;20050;-77
2022/12/12 08:06:08;;;;;;;36.53;14.63;;;;;;;;;;5024582;28;20054;-77
2022/12/12 08:08:35;;;;;;;26.65;13.20;;;;;;;;;;5046276;28;20053;-78
2022/12/12 08:11:10;;;;;;;30.38;14.05;;;;;;;;;;5050946;28;21115;-77
2022/12/12 08:13:38;;;;;;;30.13;13.40;;;;;;;;;;5045871;28;20045;-78
2022/12/12 08:16:07;;;;;;;35.20;14.27;;;;;;;;;;5043319;28;20084;-78
2022/12/12 08:18:35;;;;;;;35.63;13.32;;;;;;;;;;5045892;28;20060;-77
2022/12/12 08:21:06;;;;;;;31.35;14.65;;;;;;;;;;5044899;28;20989;-77
2022/12/12 08:23:34;;;;;;;32.13;14.50;;;;;;;;;;5045259;28;20156;-77
2022/12/12 08:26:08;;;;;;;34.00;13.88;;;;;;;;;;5045166;28;20064;-77
2022/12/12 08:28:36;;;;;;;33.55;13.60;;;;;;;;;;5043154;28;20083;-77
2022/12/12 08:31:03;;;;;;;33.50;14.18;;;;;;;;;;5052629;28;20056;-77
2022/12/12 08:33:31;;;;;;;34.60;14.73;;;;;;;;;;5044940;28;20155;-77
2022/12/12 08:35:58;;;;;;;36.95;15.68;;;;;;;;;;5044376;28;20073;-77
2022/12/12 08:38:29;;;;;;;33.40;15.48;;;;;;;;;;5037189;28;20064;-77
2022/12/12 08:41:02;;;;;;;34.83;15.05;;;;;;;;;;5043685;28;20053;-77
2022/12/12 08:43:29;;;;;;;32.10;14.82;;;;;;;;;;5044273;28;20516;-78
2022/12/12 08:46:00;;;;;;;34.75;14.23;;;;;;;;;;5044828;28;20053;-77
2022/12/12 08:48:30;;;;;;;33.72;15.10;;;;;;;;;;5053660;28;20476;-77
2022/12/12 08:50:57;;;;;;;37.45;14.55;;;;;;;;;;5046840;28;20057;-77
2022/12/12 08:53:25;;;;;;;32.03;14.75;;;;;;;;;;5049155;28;20053;-78
2022/12/12 08:55:53;;;;;;;38.58;15.63;;;;;;;;;;5045570;28;20052;-77
2022/12/12 08:58:21;;;;;;;38.75;17.10;;;;;;;;;;5048951;28;20053;-77
2022/12/12 09:00:50;;;;;;;34.00;15.07;;;;;;;;;;5046491;28;20616;-77
2022/12/12 09:03:20;;;;;;;33.17;14.70;;;;;;;;;;5045570;28;20053;-77
2022/12/12 09:05:55;;;;;;;32.63;15.63;;;;;;;;;;5046146;28;20159;-77
2022/12/12 09:08:23;;;;;;;34.42;16.98;;;;;;;;;;5050572;28;20061;-77
2022/12/12 09:10:54;;;;;;;38.85;16.10;;;;;;;;;;5045388;28;20049;-77
2022/12/12 09:13:22;;;;;;;30.50;15.13;;;;;;;;;;5046183;28;20045;-77
2022/12/12 09:15:50;;;;;;;40.40;15.57;;;;;;;;;;5047190;28;20104;-78
2022/12/12 09:18:20;;;;;;;34.33;16.10;;;;;;;;;;5046452;28;20095;-77
2022/12/12 09:20:48;;;;;;;39.75;16.30;;;;;;;;;;5047558;28;20056;-77
2022/12/12 09:23:15;;;;;;;33.95;14.35;;;;;;;;;;5048642;28;20603;-77
2022/12/12 09:25:43;;;;;;;38.20;15.48;;;;;;;;;;5044379;28;20062;-77
2022/12/12 09:28:11;;;;;;;35.03;16.65;;;;;;;;;;5048528;28;20127;-78
2022/12/12 09:30:39;;;;;;;34.50;16.65;;;;;;;;;;5048318;28;20045;-78
2022/12/12 09:33:06;;;;;;;33.45;16.60;;;;;;;;;;5051790;28;20860;-78
2022/12/12 09:35:33;;;;;;;34.72;15.32;;;;;;;;;;5052209;28;20834;-77
2022/12/12 09:38:00;;;;;;;40.53;16.25;;;;;;;;;;5054493;28;20054;-78
2022/12/12 09:40:46;;;;;;;34.67;15.52;;;;;;;;;;5056897;28;20080;-78
2022/12/12 09:43:16;;;;;;;39.78;16.63;;;;;;;;;;5043945;28;20049;-78
2022/12/12 09:45:44;;;;;;;38.72;15.70;;;;;;;;;;5046566;28;20053;-78
2022/12/12 09:48:18;;;;;;;33.42;15.60;;;;;;;;;;5049672;28;20200;-78
2022/12/12 09:50:50;;;;;;;30.85;14.95;;;;;;;;;;5050265;28;21244;-78
2022/12/12 09:53:21;;;;;;;32.50;15.30;;;;;;;;;;5049777;28;20053;-78
2022/12/12 09:56:00;;;;;;;37.83;16.27;;;;;;;;;;5053402;28;20096;-80
2022/12/12 09:58:37;;;;;;;28.90;14.32;;;;;;;;;;5030263;28;20087;-78
2022/12/12 10:01:20;;;;;;;30.60;14.82;;;;;;;;;;5055428;28;20053;-79
2022/12/12 10:03:53;;;;;;;32.38;15.35;;;;;;;;;;5053622;28;20041;-79
2022/12/12 10:06:22;;;;;;;29.20;14.82;;;;;;;;;;5054827;28;20060;-79
2022/12/12 10:09:12;;;;;;;30.73;14.60;;;;;;;;;;5055071;28;20049;-79
2022/12/12 10:11:49;;;;;;;32.28;14.07;;;;;;;;;;5051478;28;20053;-79
2022/12/12 10:14:38;;;;;;;28.95;13.75;;;;;;;;;;5055676;28;20057;-79
2022/12/12 10:17:17;;;;;;;30.98;15.10;;;;;;;;;;5056657;28;20081;-79
2022/12/12 10:19:50;;;;;;;33.80;15.57;;;;;;;;;;5055851;28;20054;-79
2022/12/12 10:22:28;;;;;;;25.13;13.25;;;;;;;;;;5054648;28;20045;-79
2022/12/12 10:25:03;;;;;;;25.35;13.55;;;;;;;;;;5057848;28;20149;-78
2022/12/12 10:27:30;;;;;;;27.73;13.50;;;;;;;;;;5055928;28;20053;-79
2022/12/12 10:30:07;;;;;;;28.02;13.70;;;;;;;;;;5058101;28;20081;-79
2022/12/12 10:32:39;;;;;;;27.80;13.70;;;;;;;;;;5059527;28;20050;-79
2022/12/12 10:35:28;;;;;;;26.83;13.80;;;;;;;;;;5062210;28;20060;-79
2022/12/12 10:38:05;;;;;;;25.88;13.25;;;;;;;;;;5051554;28;20056;-79
2022/12/12 10:40:58;;;;;;;24.75;12.38;;;;;;;;;;5057888;28;20053;-79
2022/12/12 10:43:31;;;;;;;30.50;14.43;;;;;;;;;;5057499;28;20061;-79
2022/12/12 10:46:11;;;;;;;33.95;13.30;;;;;;;;;;5061571;28;20053;-79
2022/12/12 10:48:39;;;;;;;30.75;13.82;;;;;;;;;;5058301;28;20057;-79
2022/12/12 10:51:10;;;;;;;29.45;13.90;;;;;;;;;;5060199;28;20049;-79
2022/12/12 10:53:38;;;;;;;31.08;13.80;;;;;;;;;;5060503;28;20674;-79
2022/12/12 10:56:23;;;;;;;27.13;12.52;;;;;;;;;;5042238;28;20777;-79
2022/12/12 10:58:54;;;;;;;26.75;11.93;;;;;;;;;;5042233;28;20049;-79
2022/12/12 11:01:27;;;;;;;29.90;13.60;;;;;;;;;;5061059;28;20049;-79
2022/12/12 11:04:15;;;;;;;30.10;13.33;;;;;;;;;;5056741;28;20042;-79
2022/12/12 11:06:47;;;;;;;27.65;12.85;;;;;;;;;;5053803;28;20100;-78
2022/12/12 11:09:21;;;;;;;28.00;12.73;;;;;;;;;;5058187;28;20149;-78
2022/12/12 11:11:58;;;;;;;25.93;12.73;;;;;;;;;;5055031;28;20088;-79
2022/12/12 11:14:34;;;;;;;27.30;12.20;;;;;;;;;;5057087;28;20054;-78
2022/12/12 11:17:02;;;;;;;24.08;12.23;;;;;;;;;;5052243;28;20045;-79
2022/12/12 11:19:37;;;;;;;23.83;12.40;;;;;;;;;;5056330;28;20049;-78
2022/12/12 11:22:04;;;;;;;20.88;12.35;;;;;;;;;;5061798;28;20057;-78
2022/12/12 11:24:32;;;;;;;23.92;11.95;;;;;;;;;;5053829;28;20136;-78
2022/12/12 11:27:03;;;;;;;26.35;12.63;;;;;;;;;;5056195;28;20057;-78
2022/12/12 11:29:39;;;;;;;21.60;11.30;;;;;;;;;;5057899;28;20046;-78
2022/12/12 11:32:14;;;;;;;24.83;12.20;;;;;;;;;;5057708;28;20057;-78
2022/12/12 11:34:47;;;;;;;30.95;12.50;;;;;;;;;;5055012;28;20056;-79
2022/12/12 11:37:16;;;;;;;24.90;12.45;;;;;;;;;;5033063;28;20108;-78
2022/12/12 11:39:45;;;;;;;25.77;13.32;;;;;;;;;;5054551;28;21963;-78
2022/12/12 11:42:12;;;;;;;26.95;12.10;;;;;;;;;;5038593;28;20101;-78
2022/12/12 11:44:40;;;;;;;26.05;12.07;;;;;;;;;;5062372;28;20037;-78
2022/12/12 11:47:18;;;;;;;31.38;13.15;;;;;;;;;;5053152;28;20078;-78
2022/12/12 11:49:46;;;;;;;23.52;12.35;;;;;;;;;;5056986;28;20066;-78
2022/12/12 11:52:18;;;;;;;23.63;11.60;;;;;;;;;;5056678;28;21288;-79
2022/12/12 11:54:46;;;;;;;25.25;12.32;;;;;;;;;;5053961;28;20050;-79
2022/12/12 11:57:32;;;;;;;26.00;12.05;;;;;;;;;;5058327;28;20058;-78
2022/12/12 12:00:12;;;;;;;23.20;12.38;;;;;;;;;;5058615;28;20049;-79
2022/12/12 12:02:58;;;;;;;25.55;11.80;;;;;;;;;;5057970;28;20050;-78
2022/12/12 12:05:32;;;;;;;25.52;11.32;;;;;;;;;;5038446;28;20105;-79
2022/12/12 12:08:11;;;;;;;24.48;11.07;;;;;;;;;;5057295;28;20041;-78
2022/12/12 12:10:42;;;;;;;21.80;11.70;;;;;;;;;;5062025;28;20049;-78
2022/12/12 12:13:23;;;;;;;27.27;12.15;;;;;;;;;;5045349;28;20066;-78
2022/12/12 12:15:54;;;;;;;28.60;12.77;;;;;;;;;;5061128;28;20065;-79
2022/12/12 12:18:23;;;;;;;24.58;11.60;;;;;;;;;;5063820;28;20869;-78
2022/12/12 12:20:54;;;;;;;22.75;12.10;;;;;;;;;;5059874;28;20072;-78
2022/12/12 12:23:26;;;;;;;24.73;12.30;;;;;;;;;;5057013;28;20056;-79
2022/12/12 12:26:09;;;;;;;21.83;11.50;;;;;;;;;;5056619;28;20113;-78
2022/12/12 12:28:37;;;;;;;22.77;11.60;;;;;;;;;;5060572;28;20034;-78
2022/12/12 12:31:18;;;;;;;21.08;10.75;;;;;;;;;;5059938;28;20245;-79
2022/12/12 12:34:05;;;;;;;23.55;11.25;;;;;;;;;;5063338;28;20046;-79
2022/12/12 12:36:53;;;;;;;18.10;9.60;;;;;;;;;;5058925;28;20124;-80
2022/12/12 12:39:29;;;;;;;24.60;10.95;;;;;;;;;;5063165;28;20045;-79
2022/12/12 12:42:15;;;;;;;24.35;10.68;;;;;;;;;;5052893;28;20038;-79
2022/12/12 12:44:51;;;;;;;21.25;10.02;;;;;;;;;;5043511;28;20052;-80
2022/12/12 12:47:22;;;;;;;22.63;10.65;;;;;;;;;;5061785;28;20051;-79
2022/12/12 12:49:52;;;;;;;20.02;10.38;;;;;;;;;;5058764;28;20029;-79
2022/12/12 12:52:24;;;;;;;21.70;11.50;;;;;;;;;;5039076;28;20092;-79
2022/12/12 12:54:53;;;;;;;22.77;10.85;;;;;;;;;;5042838;28;20069;-78
2022/12/12 12:57:32;;;;;;;24.33;10.77;;;;;;;;;;5052739;28;20064;-79
2022/12/12 13:00:03;;;;;;;24.77;10.70;;;;;;;;;;5055458;28;20084;-79
2022/12/12 13:02:30;;;;;;;18.95;9.93;;;;;;;;;;5054458;28;20069;-78
2022/12/12 13:05:07;;;;;;;19.30;9.63;;;;;;;;;;5058553;28;20056;-78
2022/12/12 13:07:42;;;;;;;22.98;9.20;;;;;;;;;;5063016;28;20065;-79
2022/12/12 13:10:21;;;;;;;20.80;10.20;;;;;;;;;;5069268;28;20061;-79
2022/12/12 13:13:00;;;;;;;22.30;9.88;;;;;;;;;;5057874;28;20058;-79
2022/12/12 13:15:38;;;;;;;21.75;10.00;;;;;;;;;;5058903;28;20084;-79
2022/12/12 13:18:16;;;;;;;24.60;10.57;;;;;;;;;;5052820;28;20064;-79
2022/12/12 13:20:45;;;;;;;18.10;9.65;;;;;;;;;;5057916;28;20034;-79
2022/12/12 13:23:28;;;;;;;19.75;9.02;;;;;;;;;;5061607;28;20080;-79
2022/12/12 13:26:04;;;;;;;21.48;10.38;;;;;;;;;;5060073;28;21066;-79
2022/12/12 13:28:36;;;;;;;23.92;10.40;;;;;;;;;;5054984;28;20042;-79
2022/12/12 13:31:22;;;;;;;19.42;9.93;;;;;;;;;;5058116;28;20129;-79
2022/12/12 13:33:52;;;;;;;25.98;9.77;;;;;;;;;;5055882;28;20045;-79
2022/12/12 13:36:19;;;;;;;20.48;9.55;;;;;;;;;;5061124;28;20053;-79
2022/12/12 13:38:56;;;;;;;19.33;9.43;;;;;;;;;;5060145;28;20045;-79
2022/12/12 13:41:23;;;;;;;21.38;10.25;;;;;;;;;;5059504;28;20056;-79
2022/12/12 13:43:59;;;;;;;20.88;9.98;;;;;;;;;;5065505;28;20053;-79
2022/12/12 13:46:33;;;;;;;21.23;9.65;;;;;;;;;;5043708;28;20049;-79
2022/12/12 13:49:04;;;;;;;18.65;8.93;;;;;;;;;;5064358;28;20101;-79
2022/12/12 13:51:33;;;;;;;23.52;10.10;;;;;;;;;;5064200;28;20037;-79
2022/12/12 13:54:07;;;;;;;20.52;9.77;;;;;;;;;;5063592;28;20566;-79
2022/12/12 13:56:43;;;;;;;18.98;8.60;;;;;;;;;;5045335;28;20053;-79
2022/12/12 13:59:23;;;;;;;17.92;8.60;;;;;;;;;;5064141;28;20136;-79
2022/12/12 14:02:02;;;;;;;21.98;9.43;;;;;;;;;;5053548;28;20037;-77
2022/12/12 14:04:31;;;;;;;21.75;8.88;;;;;;;;;;5048714;28;20057;-79
2022/12/12 14:07:01;;;;;;;19.50;8.68;;;;;;;;;;5057761;28;20049;-79
2022/12/12 14:09:33;;;;;;;18.60;8.85;;;;;;;;;;5061868;28;20046;-79
2022/12/12 14:12:19;;;;;;;22.50;9.07;;;;;;;;;;5062583;28;20045;-79
2022/12/12 14:14:58;;;;;;;15.13;8.13;;;;;;;;;;5065983;28;20807;-79
2022/12/12 14:17:27;;;;;;;18.48;8.43;;;;;;;;;;5070731;28;20050;-79
2022/12/12 14:19:57;;;;;;;19.08;8.73;;;;;;;;;;5063591;28;20064;-79
2022/12/12 14:22:48;;;;;;;18.38;8.25;;;;;;;;;;5062850;28;20034;-79
2022/12/12 14:25:16;;;;;;;19.02;8.50;;;;;;;;;;5058255;28;20109;-79
2022/12/12 14:27:50;;;;;;;18.45;8.40;;;;;;;;;;5069910;28;20045;-79
2022/12/12 14:30:28;;;;;;;25.20;9.15;;;;;;;;;;5056926;28;20052;-79
2022/12/12 14:32:58;;;;;;;19.20;9.52;;;;;;;;;;5062469;28;20141;-78
2022/12/12 14:36:01;;;;;;;22.38;10.50;;;;;;;;;;5064149;28;20049;-79
2022/12/12 14:38:50;;;;;;;25.58;12.15;;;;;;;;;;4979679;28;20060;-79
2022/12/12 14:41:31;;;;;;;23.98;11.55;;;;;;;;;;4981958;28;20044;-79
2022/12/12 14:44:02;;;;;;;26.08;11.30;;;;;;;;;;4983782;28;20075;-80
2022/12/12 14:46:58;;;;;;;25.20;10.98;;;;;;;;;;4983154;28;20516;-78
2022/12/12 14:49:25;;;;;;;23.50;10.88;;;;;;;;;;4981895;28;20108;-79
2022/12/12 14:51:55;;;;;;;24.35;11.23;;;;;;;;;;4985407;28;20067;-79
2022/12/12 14:54:23;;;;;;;26.05;12.55;;;;;;;;;;4982602;28;20043;-79
2022/12/12 14:56:53;;;;;;;23.40;10.70;;;;;;;;;;4987023;28;20100;-79
2022/12/12 14:59:27;;;;;;;25.27;11.60;;;;;;;;;;4983553;28;20058;-78